createdAt,value
2022-09-01T00:01:42.211Z,97833.53
2022-09-01T00:04:17.005Z,97834.66
2022-09-01T00:06:43.909Z,97839.41
2022-09-01T00:09:14.198Z,97831.13
2022-09-01T00:11:43.693Z,97832.88
2022-09-01T00:14:22.306Z,97833.78
2022-09-01T00:17:01.986Z,97832.69
2022-09-01T00:19:29.733Z,97830.69
2022-09-01T00:21:57.305Z,97827.38
2022-09-01T00:24:26.235Z,97830.69
2022-09-01T00:26:53.987Z,97828.50
2022-09-01T00:29:20.871Z,97824.84
2022-09-01T00:31:47.967Z,97828.94
2022-09-01T00:34:14.801Z,97830.03
2022-09-01T00:36:41.631Z,97824.31
2022-09-01T00:39:09.061Z,97824.75
2022-09-01T00:41:41.750Z,97822.34
2022-09-01T00:44:12.173Z,97813.38
2022-09-01T00:46:47.593Z,97813.38
2022-09-01T00:49:26.106Z,97815.94
2022-09-01T00:51:59.853Z,97819.22
2022-09-01T00:54:32.390Z,97814.19
2022-09-01T00:56:59.886Z,97824.56
2022-09-01T00:59:27.971Z,97822.13
2022-09-01T01:01:56.438Z,97818.25
2022-09-01T01:04:23.006Z,97821.69
2022-09-01T01:07:01.826Z,97819.06
2022-09-01T01:09:32.069Z,97817.53
2022-09-01T01:12:00.647Z,97814.19
2022-09-01T01:14:31.419Z,97814.09
2022-09-01T01:17:00.076Z,97813.78
2022-09-01T01:20:02.427Z,97807.81
2022-09-01T01:23:02.710Z,97807.34
2022-09-01T01:25:42.001Z,97808.25
2022-09-01T01:28:31.989Z,97802.91
2022-09-01T01:31:06.200Z,97809.03
2022-09-01T01:33:51.258Z,97810.00
2022-09-01T01:36:32.136Z,97800.50
2022-09-01T01:39:03.519Z,97809.34
2022-09-01T01:41:32.892Z,97802.28
2022-09-01T01:44:04.332Z,97805.59
2022-09-01T01:46:33.338Z,97809.47
2022-09-01T01:49:02.467Z,97800.31
2022-09-01T01:51:31.877Z,97806.16
2022-09-01T01:53:59.697Z,97806.47
2022-09-01T01:56:26.217Z,97798.78
2022-09-01T01:58:55.423Z,97801.41
2022-09-01T02:01:32.058Z,97795.56
2022-09-01T02:04:00.595Z,97792.22
2022-09-01T02:06:28.542Z,97786.25
2022-09-01T02:08:58.061Z,97796.09
2022-09-01T02:11:26.413Z,97791.13
2022-09-01T02:13:57.486Z,97791.47
2022-09-01T02:16:26.228Z,97789.59
2022-09-01T02:18:54.021Z,97780.22
2022-09-01T02:21:23.285Z,97777.81
2022-09-01T02:24:03.490Z,97781.34
2022-09-01T02:26:34.110Z,97787.31
2022-09-01T02:29:05.080Z,97782.09
2022-09-01T02:31:35.699Z,97789.72
2022-09-01T02:34:02.479Z,97791.59
2022-09-01T02:36:32.791Z,97785.09
2022-09-01T02:38:59.257Z,97785.97
2022-09-01T02:41:29.293Z,97782.44
2022-09-01T02:43:56.049Z,97785.31
2022-09-01T02:46:24.558Z,97782.91
2022-09-01T02:48:51.548Z,97784.97
2022-09-01T02:51:22.582Z,97782.78
2022-09-01T02:53:52.711Z,97793.47
2022-09-01T02:56:25.126Z,97784.00
2022-09-01T02:58:53.181Z,97780.13
2022-09-01T03:01:25.004Z,97781.00
2022-09-01T03:03:54.945Z,97780.56
2022-09-01T03:06:24.274Z,97776.91
2022-09-01T03:08:53.484Z,97772.19
2022-09-01T03:11:20.186Z,97780.88
2022-09-01T03:13:47.026Z,97782.44
2022-09-01T03:16:13.693Z,97787.41
2022-09-01T03:18:40.464Z,97785.53
2022-09-01T03:21:08.458Z,97786.41
2022-09-01T03:23:38.005Z,97787.09
2022-09-01T03:26:04.582Z,97779.69
2022-09-01T03:28:31.942Z,97775.47
2022-09-01T03:30:59.352Z,97785.09
2022-09-01T03:33:28.294Z,97778.91
2022-09-01T03:35:55.981Z,97775.25
2022-09-01T03:38:24.287Z,97776.47
2022-09-01T03:41:02.106Z,97777.13
2022-09-01T03:43:35.531Z,97774.03
2022-09-01T03:46:03.423Z,97768.53
2022-09-01T03:48:31.679Z,97763.66
2022-09-01T03:51:03.186Z,97769.06
2022-09-01T03:53:32.522Z,97761.88
2022-09-01T03:56:00.249Z,97762.66
2022-09-01T03:58:27.151Z,97759.25
2022-09-01T04:00:58.310Z,97768.31
2022-09-01T04:03:29.104Z,97764.78
2022-09-01T04:05:56.145Z,97758.47
2022-09-01T04:08:27.539Z,97765.22
2022-09-01T04:11:02.989Z,97766.19
2022-09-01T04:13:37.702Z,97767.28
2022-09-01T04:16:31.003Z,97765.75
2022-09-01T04:18:57.643Z,97766.50
2022-09-01T04:21:24.195Z,97758.03
2022-09-01T04:23:50.638Z,97760.34
2022-09-01T04:26:20.545Z,97759.44
2022-09-01T04:28:50.882Z,97758.81
2022-09-01T04:31:20.099Z,97752.59
2022-09-01T04:33:49.771Z,97759.44
2022-09-01T04:36:25.893Z,97750.84
2022-09-01T04:38:56.114Z,97755.03
2022-09-01T04:41:25.675Z,97763.22
2022-09-01T04:43:57.077Z,97756.13
2022-09-01T04:46:28.467Z,97747.50
2022-09-01T04:48:55.870Z,97754.59
2022-09-01T04:51:24.074Z,97753.38
2022-09-01T04:53:50.705Z,97760.00
2022-09-01T04:56:20.728Z,97763.84
2022-09-01T04:58:47.881Z,97763.63
2022-09-01T05:01:21.638Z,97760.84
2022-09-01T05:03:56.456Z,97767.16
2022-09-01T05:06:23.247Z,97772.22
2022-09-01T05:08:50.383Z,97760.22
2022-09-01T05:11:17.843Z,97770.13
2022-09-01T05:13:49.214Z,97772.78
2022-09-01T05:16:25.310Z,97776.88
2022-09-01T05:18:54.251Z,97770.94
2022-09-01T05:21:24.724Z,97774.22
2022-09-01T05:23:51.948Z,97779.84
2022-09-01T05:26:25.008Z,97776.66
2022-09-01T05:28:54.925Z,97779.81
2022-09-01T05:31:23.412Z,97782.72
2022-09-01T05:33:50.914Z,97785.66
2022-09-01T05:36:20.201Z,97782.72
2022-09-01T05:38:48.142Z,97782.03
2022-09-01T05:41:16.447Z,97780.81
2022-09-01T05:43:49.011Z,97792.72
2022-09-01T05:46:17.677Z,97780.50
2022-09-01T05:48:45.756Z,97786.25
2022-09-01T05:51:40.317Z,97790.09
2022-09-01T05:54:03.454Z,97789.41
2022-09-01T05:56:31.303Z,97790.97
2022-09-01T06:01:50.449Z,97787.38
2022-09-01T06:04:17.524Z,97785.69
2022-09-01T06:07:07.077Z,97785.47
2022-09-01T06:09:33.951Z,97792.41
2022-09-01T06:12:01.945Z,97790.28
2022-09-01T06:14:28.493Z,97781.75
2022-09-01T06:16:54.910Z,97784.75
2022-09-01T06:19:21.349Z,97786.34
2022-09-01T06:21:48.983Z,97778.25
2022-09-01T06:24:15.446Z,97794.06
2022-09-01T06:26:42.264Z,97787.13
2022-09-01T06:29:15.323Z,97788.41
2022-09-01T06:31:43.315Z,97791.91
2022-09-01T06:34:17.691Z,97792.25
2022-09-01T06:36:46.108Z,97792.91
2022-09-01T06:39:19.722Z,97793.75
2022-09-01T06:41:49.753Z,97790.41
2022-09-01T06:44:22.351Z,97795.47
2022-09-01T06:46:51.990Z,97800.09
2022-09-01T06:49:19.315Z,97792.13
2022-09-01T06:51:51.789Z,97795.34
2022-09-01T06:54:21.165Z,97795.34
2022-09-01T06:56:51.960Z,97798.03
2022-09-01T06:59:21.808Z,97805.56
2022-09-01T07:02:01.476Z,97801.22
2022-09-01T07:04:43.169Z,97810.50
2022-09-01T07:10:17.757Z,97810.88
2022-09-01T07:13:05.609Z,97805.97
2022-09-01T07:18:25.158Z,97804.47
2022-09-01T07:21:36.296Z,97817.81
2022-09-01T07:26:26.852Z,97818.03
2022-09-01T07:29:01.001Z,97818.09
2022-09-01T07:31:52.085Z,97821.34
2022-09-01T07:34:38.851Z,97821.09
2022-09-01T07:39:53.437Z,97827.88
2022-09-01T07:45:28.000Z,97833.84
2022-09-01T07:47:55.615Z,97828.03
2022-09-01T07:51:34.281Z,97836.38
2022-09-01T07:53:12.685Z,97830.97
2022-09-01T07:55:42.233Z,97834.38
2022-09-01T07:58:11.070Z,97831.59
2022-09-01T08:00:43.596Z,97835.13
2022-09-01T08:03:10.260Z,97837.28
2022-09-01T08:05:38.121Z,97841.00
2022-09-01T08:08:18.652Z,97844.84
2022-09-01T08:10:49.074Z,97838.38
2022-09-01T08:13:17.053Z,97848.38
2022-09-01T08:18:47.940Z,97853.59
2022-09-01T08:21:16.694Z,97851.31
2022-09-01T08:23:44.306Z,97862.56
2022-09-01T08:26:13.472Z,97859.94
2022-09-01T08:28:45.985Z,97859.38
2022-09-01T08:31:16.232Z,97859.28
2022-09-01T08:33:44.418Z,97858.75
2022-09-01T08:36:13.525Z,97861.00
2022-09-01T08:38:41.270Z,97859.09
2022-09-01T08:41:17.526Z,97862.47
2022-09-01T08:44:04.863Z,97862.22
2022-09-01T08:46:39.989Z,97856.78
2022-09-01T08:49:28.762Z,97848.53
2022-09-01T08:52:07.581Z,97863.50
2022-09-01T08:54:46.842Z,97866.22
2022-09-01T08:57:20.710Z,97864.72
2022-09-01T08:59:47.567Z,97866.88
2022-09-01T09:02:27.833Z,97873.00
2022-09-01T09:05:00.808Z,97874.78
2022-09-01T09:08:07.972Z,97872.88
2022-09-01T09:10:55.584Z,97876.38
2022-09-01T09:14:15.666Z,97871.81
2022-09-01T09:16:51.573Z,97875.97
2022-09-01T09:19:28.403Z,97880.25
2022-09-01T09:21:58.692Z,97873.41
2022-09-01T09:24:47.592Z,97876.28
2022-09-01T09:27:20.054Z,97874.66
2022-09-01T09:29:48.830Z,97878.72
2022-09-01T09:32:23.007Z,97867.41
2022-09-01T09:34:52.751Z,97867.19
2022-09-01T09:37:22.386Z,97864.50
2022-09-01T09:40:12.200Z,97857.53
2022-09-01T09:42:40.802Z,97862.00
2022-09-01T09:45:22.905Z,97876.66
2022-09-01T09:47:49.728Z,97859.00
2022-09-01T09:50:23.813Z,97867.50
2022-09-01T09:52:52.603Z,97868.72
2022-09-01T09:55:24.190Z,97868.63
2022-09-01T09:57:54.658Z,97862.75
2022-09-01T10:00:25.790Z,97864.28
2022-09-01T10:02:58.867Z,97858.47
2022-09-01T10:05:40.106Z,97868.38
2022-09-01T10:08:10.526Z,97868.81
2022-09-01T10:10:57.502Z,97854.72
2022-09-01T10:13:27.589Z,97852.19
2022-09-01T10:16:00.180Z,97853.56
2022-09-01T10:18:35.220Z,97856.84
2022-09-01T10:21:04.306Z,97857.38
2022-09-01T10:23:34.670Z,97858.16
2022-09-01T10:26:09.482Z,97860.56
2022-09-01T10:28:49.500Z,97860.22
2022-09-01T10:31:17.915Z,97862.28
2022-09-01T10:33:45.321Z,97856.44
2022-09-01T10:36:13.879Z,97859.94
2022-09-01T10:38:52.627Z,97859.88
2022-09-01T10:41:53.300Z,97853.41
2022-09-01T10:44:33.788Z,97856.06
2022-09-01T10:47:24.429Z,97861.06
2022-09-01T10:49:50.870Z,97858.56
2022-09-01T10:52:43.100Z,97849.56
2022-09-01T10:55:26.682Z,97850.31
2022-09-01T10:59:30.476Z,97845.97
2022-09-01T11:03:56.308Z,97850.44
2022-09-01T11:06:42.243Z,97849.66
2022-09-01T11:09:37.903Z,97839.59
2022-09-01T11:12:17.330Z,97842.94
2022-09-01T11:15:02.426Z,97839.56
2022-09-01T11:17:36.618Z,97846.69
2022-09-01T11:20:10.555Z,97853.63
2022-09-01T11:22:43.314Z,97844.38
2022-09-01T11:25:13.024Z,97845.53
2022-09-01T11:27:48.444Z,97845.16
2022-09-01T11:30:24.205Z,97842.56
2022-09-01T11:32:59.567Z,97842.06
2022-09-01T11:35:28.946Z,97840.06
2022-09-01T11:38:02.002Z,97842.13
2022-09-01T11:40:32.575Z,97837.75
2022-09-01T11:43:05.550Z,97844.94
2022-09-01T11:45:42.113Z,97842.28
2022-09-01T11:48:13.304Z,97842.06
2022-09-01T11:50:42.553Z,97833.16
2022-09-01T11:53:13.306Z,97832.88
2022-09-01T11:55:42.387Z,97833.78
2022-09-01T11:58:17.930Z,97839.97
2022-09-01T12:00:44.906Z,97830.75
2022-09-01T12:03:24.988Z,97832.69
2022-09-01T12:05:59.506Z,97835.94
2022-09-01T12:08:30.513Z,97830.25
2022-09-01T12:11:20.546Z,97831.88
2022-09-01T12:14:03.986Z,97826.66
2022-09-01T12:16:34.812Z,97828.31
2022-09-01T12:19:01.467Z,97831.09
2022-09-01T12:21:34.017Z,97826.41
2022-09-01T12:24:32.696Z,97814.25
2022-09-01T12:27:01.340Z,97816.28
2022-09-01T12:29:32.209Z,97821.34
2022-09-01T12:32:00.156Z,97814.72
2022-09-01T12:35:11.100Z,97816.41
2022-09-01T12:37:38.534Z,97812.63
2022-09-01T12:40:05.333Z,97820.91
2022-09-01T12:42:39.540Z,97813.66
2022-09-01T12:45:10.206Z,97814.19
2022-09-01T12:47:37.343Z,97804.00
2022-09-01T12:50:08.649Z,97814.69
2022-09-01T12:52:44.955Z,97814.31
2022-09-01T12:58:09.938Z,97815.13
2022-09-01T13:00:58.518Z,97811.28
2022-09-01T13:03:27.538Z,97808.34
2022-09-01T13:05:56.402Z,97808.22
2022-09-01T13:08:28.857Z,97800.34
2022-09-01T13:11:01.399Z,97810.94
2022-09-01T13:13:28.842Z,97802.16
2022-09-01T13:16:00.045Z,97800.78
2022-09-01T13:18:27.945Z,97795.81
2022-09-01T13:20:55.950Z,97790.72
2022-09-01T13:23:23.029Z,97797.41
2022-09-01T13:25:49.897Z,97794.41
2022-09-01T13:28:17.313Z,97797.22
2022-09-01T13:30:48.700Z,97792.31
2022-09-01T13:33:19.021Z,97797.34
2022-09-01T13:35:46.130Z,97789.78
2022-09-01T13:38:16.119Z,97796.94
2022-09-01T13:40:47.280Z,97792.81
2022-09-01T13:43:15.366Z,97797.19
2022-09-01T13:45:42.205Z,97785.25
2022-09-01T13:48:17.252Z,97787.22
2022-09-01T13:53:32.798Z,97782.72
2022-09-01T13:55:59.263Z,97777.63
2022-09-01T13:58:25.722Z,97774.81
2022-09-01T14:00:52.772Z,97778.31
2022-09-01T14:03:22.772Z,97779.09
2022-09-01T14:05:49.754Z,97776.38
2022-09-01T14:08:19.073Z,97768.16
2022-09-01T14:10:48.965Z,97760.38
2022-09-01T14:13:15.855Z,97759.91
2022-09-01T14:15:42.676Z,97756.00
2022-09-01T14:18:09.202Z,97760.84
2022-09-01T14:20:41.152Z,97761.59
2022-09-01T14:23:08.935Z,97755.53
2022-09-01T14:25:35.626Z,97762.25
2022-09-01T14:28:03.869Z,97747.34
2022-09-01T14:30:32.136Z,97749.03
2022-09-01T14:33:02.698Z,97743.25
2022-09-01T14:35:33.198Z,97746.59
2022-09-01T14:38:01.247Z,97740.78
2022-09-01T14:40:29.366Z,97735.34
2022-09-01T14:42:56.426Z,97730.06
2022-09-01T14:45:25.788Z,97730.34
2022-09-01T14:47:55.320Z,97728.16
2022-09-01T14:50:23.715Z,97719.22
2022-09-01T14:52:53.785Z,97718.69
2022-09-01T14:55:25.516Z,97713.16
2022-09-01T14:57:52.455Z,97715.19
2022-09-01T15:00:19.518Z,97717.78
2022-09-01T15:02:46.677Z,97713.44
2022-09-01T15:05:14.429Z,97713.97
2022-09-01T15:07:42.160Z,97707.44
2022-09-01T15:10:10.631Z,97712.94
2022-09-01T15:12:42.789Z,97715.50
2022-09-01T15:15:10.171Z,97713.88
2022-09-01T15:17:36.730Z,97718.16
2022-09-01T15:20:23.408Z,97710.25
2022-09-01T15:22:50.466Z,97718.03
2022-09-01T15:25:17.447Z,97708.16
2022-09-01T15:27:43.950Z,97712.16
2022-09-01T15:30:17.925Z,97711.06
2022-09-01T15:32:50.183Z,97707.22
2022-09-01T15:35:18.243Z,97711.19
2022-09-01T15:37:47.550Z,97706.88
2022-09-01T15:40:14.190Z,97712.47
2022-09-01T15:42:40.691Z,97718.06
2022-09-01T15:45:12.220Z,97716.69
2022-09-01T15:47:44.912Z,97723.31
2022-09-01T15:50:21.543Z,97717.63
2022-09-01T15:52:58.660Z,97709.06
2022-09-01T15:55:31.663Z,97712.22
2022-09-01T15:57:58.970Z,97705.94
2022-09-01T16:00:26.778Z,97711.25
2022-09-01T16:02:55.540Z,97708.09
2022-09-01T16:05:22.670Z,97712.22
2022-09-01T16:07:51.576Z,97708.31
2022-09-01T16:10:18.562Z,97703.78
2022-09-01T16:12:46.617Z,97710.19
2022-09-01T16:15:16.608Z,97712.84
2022-09-01T16:17:49.082Z,97713.69
2022-09-01T16:20:24.205Z,97702.47
2022-09-01T16:22:55.368Z,97710.84
2022-09-01T16:25:31.581Z,97711.63
2022-09-01T16:28:04.735Z,97711.91
2022-09-01T16:30:31.190Z,97710.06
2022-09-01T16:33:01.157Z,97708.34
2022-09-01T16:35:46.230Z,97716.88
2022-09-01T16:38:37.602Z,97714.78
2022-09-01T16:41:44.476Z,97717.47
2022-09-01T16:44:21.686Z,97706.50
2022-09-01T16:47:04.130Z,97706.72
2022-09-01T16:49:34.898Z,97709.13
2022-09-01T16:52:30.956Z,97709.94
2022-09-01T16:55:35.995Z,97705.19
2022-09-01T16:58:24.273Z,97717.16
2022-09-01T17:01:17.156Z,97714.75
2022-09-01T17:03:57.987Z,97704.78
2022-09-01T17:06:36.525Z,97712.44
2022-09-01T17:09:16.575Z,97710.13
2022-09-01T17:11:49.623Z,97708.81
2022-09-01T17:14:31.561Z,97710.31
2022-09-01T17:17:10.715Z,97712.44
2022-09-01T17:19:40.850Z,97715.31
2022-09-01T17:22:11.665Z,97708.84
2022-09-01T17:24:39.922Z,97718.56
2022-09-01T17:27:14.116Z,97714.50
2022-09-01T17:29:45.131Z,97715.34
2022-09-01T17:32:48.316Z,97711.50
2022-09-01T17:35:58.430Z,97715.72
2022-09-01T17:38:54.125Z,97715.28
2022-09-01T17:41:34.969Z,97713.38
2022-09-01T17:44:26.635Z,97720.53
2022-09-01T17:47:23.403Z,97721.66
2022-09-01T17:50:10.847Z,97720.88
2022-09-01T17:53:02.206Z,97720.63
2022-09-01T17:55:45.128Z,97721.44
2022-09-01T17:58:41.043Z,97728.56
2022-09-01T18:01:21.342Z,97720.25
2022-09-01T18:04:20.043Z,97725.63
2022-09-01T18:07:14.787Z,97724.13
2022-09-01T18:09:46.304Z,97725.06
2022-09-01T18:12:18.923Z,97724.78
2022-09-01T18:15:09.017Z,97723.72
2022-09-01T18:17:44.705Z,97729.09
2022-09-01T18:20:19.365Z,97725.25
2022-09-01T18:23:05.034Z,97732.22
2022-09-01T18:25:39.529Z,97734.22
2022-09-01T18:28:06.375Z,97742.69
2022-09-01T18:30:55.790Z,97731.31
2022-09-01T18:33:32.887Z,97744.56
2022-09-01T18:36:16.975Z,97740.41
2022-09-01T18:38:55.880Z,97738.41
2022-09-01T18:41:40.236Z,97744.22
2022-09-01T18:44:19.041Z,97743.88
2022-09-01T18:47:01.228Z,97750.00
2022-09-01T18:49:36.658Z,97751.66
2022-09-01T18:52:12.630Z,97751.34
2022-09-01T18:54:44.360Z,97751.75
2022-09-01T18:57:21.097Z,97752.97
2022-09-01T19:00:02.903Z,97757.38
2022-09-01T19:02:45.660Z,97753.78
2022-09-01T19:05:32.781Z,97751.84
2022-09-01T19:08:04.721Z,97755.78
2022-09-01T19:10:42.370Z,97747.84
2022-09-01T19:13:18.050Z,97751.50
2022-09-01T19:15:59.023Z,97750.50
2022-09-01T19:18:39.566Z,97757.81
2022-09-01T19:21:08.098Z,97754.88
2022-09-01T19:23:44.299Z,97756.81
2022-09-01T19:26:15.911Z,97759.56
2022-09-01T19:28:58.423Z,97753.38
2022-09-01T19:31:29.217Z,97755.19
2022-09-01T19:34:02.695Z,97766.16
2022-09-01T19:36:40.661Z,97759.78
2022-09-01T19:39:11.842Z,97762.34
2022-09-01T19:41:47.720Z,97758.16
2022-09-01T19:44:25.587Z,97757.94
2022-09-01T19:47:03.002Z,97754.78
2022-09-01T19:49:43.138Z,97758.00
2022-09-01T19:52:34.162Z,97747.19
2022-09-01T19:55:09.886Z,97745.75
2022-09-01T19:57:45.539Z,97741.44
2022-09-01T20:00:20.443Z,97740.78
2022-09-01T20:02:53.122Z,97740.56
2022-09-01T20:05:40.269Z,97746.09
2022-09-01T20:08:15.514Z,97752.59
2022-09-01T20:11:07.718Z,97747.34
2022-09-01T20:13:58.517Z,97743.38
2022-09-01T20:16:44.501Z,97746.03
2022-09-01T20:19:16.452Z,97745.38
2022-09-01T20:21:47.981Z,97755.38
2022-09-01T20:24:39.888Z,97748.69
2022-09-01T20:27:44.063Z,97750.78
2022-09-01T20:30:14.346Z,97750.78
2022-09-01T20:33:03.293Z,97752.09
2022-09-01T20:35:39.808Z,97757.84
2022-09-01T20:38:35.524Z,97753.88
2022-09-01T20:41:18.141Z,97751.44
2022-09-01T20:43:49.130Z,97752.22
2022-09-01T20:46:19.698Z,97758.94
2022-09-01T20:48:48.001Z,97757.38
2022-09-01T20:51:21.604Z,97767.44
2022-09-01T20:54:19.170Z,97765.78
2022-09-01T20:57:23.283Z,97757.28
2022-09-01T20:59:54.564Z,97757.94
2022-09-01T21:02:33.289Z,97756.72
2022-09-01T21:05:11.078Z,97754.53
2022-09-01T21:08:25.891Z,97763.38
2022-09-01T21:11:04.102Z,97759.94
2022-09-01T21:13:33.492Z,97762.25
2022-09-01T21:16:08.770Z,97760.81
2022-09-01T21:18:47.123Z,97767.41
2022-09-01T21:21:28.896Z,97761.78
2022-09-01T21:23:55.370Z,97754.47
2022-09-01T21:26:21.907Z,97760.06
2022-09-01T21:28:53.102Z,97757.19
2022-09-01T21:31:20.073Z,97750.31
2022-09-01T21:33:46.790Z,97748.44
2022-09-01T21:36:13.325Z,97745.81
2022-09-01T21:38:39.845Z,97744.44
2022-09-01T21:41:10.840Z,97746.94
2022-09-01T21:43:43.853Z,97742.00
2022-09-01T21:46:10.887Z,97746.47
2022-09-01T21:48:37.442Z,97747.25
2022-09-01T21:51:04.844Z,97750.09
2022-09-01T21:53:32.800Z,97736.53
2022-09-01T21:55:59.721Z,97745.22
2022-09-01T21:58:26.241Z,97739.13
2022-09-01T22:00:52.790Z,97744.72
2022-09-01T22:03:19.579Z,97740.88
2022-09-01T22:05:46.252Z,97746.44
2022-09-01T22:08:14.135Z,97742.75
2022-09-01T22:10:46.786Z,97736.97
2022-09-01T22:13:13.591Z,97745.28
2022-09-01T22:15:42.827Z,97732.28
2022-09-01T22:18:09.559Z,97739.94
2022-09-01T22:20:36.019Z,97732.13
2022-09-01T22:23:02.833Z,97729.56
2022-09-01T22:25:31.075Z,97729.22
2022-09-01T22:27:59.153Z,97730.84
2022-09-01T22:30:25.708Z,97731.63
2022-09-01T22:32:53.992Z,97728.97
2022-09-01T22:35:20.811Z,97733.16
2022-09-01T22:37:47.738Z,97736.53
2022-09-01T22:40:15.590Z,97737.66
2022-09-01T22:42:43.023Z,97737.38
2022-09-01T22:45:11.075Z,97740.88
2022-09-01T22:47:38.395Z,97731.97
2022-09-01T22:50:07.738Z,97729.72
2022-09-01T22:52:35.641Z,97735.22
2022-09-01T22:55:03.343Z,97727.28
2022-09-01T22:57:29.987Z,97727.91
2022-09-01T22:59:56.598Z,97725.94
2022-09-01T23:02:23.483Z,97727.47
2022-09-01T23:04:50.437Z,97726.53
2022-09-01T23:07:17.172Z,97729.09
2022-09-01T23:09:43.671Z,97719.06
2022-09-01T23:12:10.118Z,97728.56
2022-09-01T23:14:36.565Z,97724.03
2022-09-01T23:17:03.213Z,97721.28
2022-09-01T23:19:29.667Z,97719.38
2022-09-01T23:21:56.110Z,97718.16
2022-09-01T23:24:22.822Z,97717.81
2022-09-01T23:26:49.834Z,97723.50
2022-09-01T23:29:17.256Z,97711.03
2022-09-01T23:31:44.263Z,97709.16
2022-09-01T23:34:13.269Z,97708.88
2022-09-01T23:36:40.758Z,97701.06
2022-09-01T23:39:07.698Z,97702.69
2022-09-01T23:41:36.939Z,97705.94
2022-09-01T23:44:06.026Z,97703.69
2022-09-01T23:46:35.209Z,97699.75
2022-09-01T23:49:02.220Z,97693.56
2022-09-01T23:51:29.581Z,97699.06
2022-09-01T23:53:56.421Z,97694.34
2022-09-01T23:56:25.826Z,97698.69
2022-09-01T23:58:52.882Z,97697.66
